createdAt,value
2019-03-08T00:01:15.946Z,24.07
2019-03-08T00:03:45.402Z,22.57
2019-03-08T00:06:14.727Z,23.53
2019-03-08T00:08:44.250Z,24.10
2019-03-08T00:11:13.585Z,24.33
2019-03-08T00:13:42.939Z,24.90
2019-03-08T00:16:12.353Z,25.57
2019-03-08T00:18:41.685Z,28.93
2019-03-08T00:21:11.085Z,32.83
2019-03-08T00:23:40.496Z,32.70
2019-03-08T00:26:10.020Z,30.13
2019-03-08T00:28:39.399Z,33.53
2019-03-08T00:31:09.148Z,32.73
2019-03-08T00:33:38.632Z,28.23
2019-03-08T00:36:07.962Z,28.20
2019-03-08T00:38:37.324Z,26.27
2019-03-08T00:41:06.633Z,26.30
2019-03-08T00:43:36.006Z,27.73
2019-03-08T00:46:05.460Z,32.00
2019-03-08T00:48:34.792Z,32.23
2019-03-08T00:51:04.458Z,34.30
2019-03-08T00:53:33.777Z,33.20
2019-03-08T00:56:03.128Z,33.33
2019-03-08T00:58:32.537Z,31.50
2019-03-08T01:01:01.949Z,33.57
2019-03-08T01:03:31.270Z,34.77
2019-03-08T01:06:00.625Z,31.83
2019-03-08T01:08:29.973Z,33.20
2019-03-08T01:10:59.389Z,31.50
2019-03-08T01:13:28.750Z,37.53
2019-03-08T01:15:58.131Z,38.37
2019-03-08T01:18:27.837Z,39.17
2019-03-08T01:20:57.241Z,40.80
2019-03-08T01:23:26.619Z,37.47
2019-03-08T01:25:56.045Z,40.57
2019-03-08T01:28:25.413Z,38.30
2019-03-08T01:30:54.721Z,41.80
2019-03-08T01:33:24.103Z,46.73
2019-03-08T01:35:53.468Z,50.93
2019-03-08T01:38:23.004Z,57.37
2019-03-08T01:40:52.406Z,42.83
2019-03-08T01:43:21.741Z,58.87
2019-03-08T01:45:51.717Z,49.27
2019-03-08T01:48:21.070Z,58.83
2019-03-08T01:50:50.474Z,51.10
2019-03-08T01:53:19.860Z,50.40
2019-03-08T01:55:49.308Z,41.13
2019-03-08T01:58:18.631Z,59.13
2019-03-08T02:00:48.067Z,66.10
2019-03-08T02:03:17.453Z,58.03
2019-03-08T02:05:46.840Z,62.77
2019-03-08T02:08:16.284Z,71.10
2019-03-08T02:10:45.714Z,69.07
2019-03-08T02:13:15.388Z,70.70
2019-03-08T02:15:44.769Z,66.73
2019-03-08T02:18:14.131Z,43.63
2019-03-08T02:20:43.562Z,51.77
2019-03-08T02:23:13.026Z,56.00
2019-03-08T02:25:42.402Z,50.00
2019-03-08T02:28:11.944Z,51.97
2019-03-08T02:30:41.348Z,40.47
2019-03-08T02:33:10.747Z,44.43
2019-03-08T02:35:40.436Z,52.13
2019-03-08T02:38:10.004Z,49.33
2019-03-08T02:40:39.679Z,58.20
2019-03-08T02:43:14.027Z,56.23
2019-03-08T02:45:43.487Z,62.00
2019-03-08T02:48:12.890Z,61.73
2019-03-08T02:50:42.223Z,54.23
2019-03-08T02:53:11.647Z,48.53
2019-03-08T02:55:41.042Z,45.40
2019-03-08T02:58:10.494Z,45.80
2019-03-08T03:00:45.714Z,47.23
2019-03-08T03:03:15.428Z,51.40
2019-03-08T03:05:44.974Z,55.57
2019-03-08T03:08:14.360Z,50.27
2019-03-08T03:10:43.736Z,47.03
2019-03-08T03:13:13.115Z,49.43
2019-03-08T03:15:42.470Z,51.87
2019-03-08T03:18:12.622Z,45.47
2019-03-08T03:20:42.346Z,48.73
2019-03-08T03:23:11.720Z,46.10
2019-03-08T03:25:41.045Z,37.40
2019-03-08T03:28:10.656Z,44.23
2019-03-08T03:30:40.001Z,43.73
2019-03-08T03:33:09.594Z,40.30
2019-03-08T03:35:39.040Z,36.17
2019-03-08T03:38:08.499Z,34.97
2019-03-08T03:40:37.894Z,38.53
2019-03-08T03:43:07.290Z,37.63
2019-03-08T03:45:36.645Z,35.73
2019-03-08T03:48:06.187Z,30.53
2019-03-08T03:50:35.569Z,31.53
2019-03-08T03:53:04.979Z,29.90
2019-03-08T03:55:34.429Z,34.83
2019-03-08T03:58:03.848Z,38.30
2019-03-08T04:00:33.286Z,35.30
2019-03-08T04:03:02.618Z,28.57
2019-03-08T04:05:32.067Z,26.63
2019-03-08T04:08:01.482Z,21.73
2019-03-08T04:10:30.916Z,20.97
2019-03-08T04:13:00.313Z,19.13
2019-03-08T04:15:29.954Z,19.33
2019-03-08T04:17:59.281Z,21.80
2019-03-08T04:20:28.650Z,23.53
2019-03-08T04:22:58.018Z,26.00
2019-03-08T04:25:27.432Z,28.97
2019-03-08T04:27:57.099Z,24.40
2019-03-08T04:30:26.479Z,27.70
2019-03-08T04:32:55.808Z,28.83
2019-03-08T04:35:25.227Z,28.50
2019-03-08T04:37:54.600Z,29.80
2019-03-08T04:40:23.989Z,29.47
2019-03-08T04:42:53.374Z,29.50
2019-03-08T04:45:22.795Z,25.33
2019-03-08T04:47:52.147Z,24.63
2019-03-08T04:50:21.512Z,26.77
2019-03-08T04:52:50.815Z,26.80
2019-03-08T04:55:20.183Z,27.90
2019-03-08T04:57:49.734Z,27.13
2019-03-08T05:00:19.355Z,28.87
2019-03-08T05:02:48.775Z,29.43
2019-03-08T05:05:18.205Z,28.97
2019-03-08T05:07:47.549Z,30.27
2019-03-08T05:10:17.149Z,30.10
2019-03-08T05:12:46.488Z,32.00
2019-03-08T05:15:16.117Z,30.80
2019-03-08T05:17:45.527Z,33.50
2019-03-08T05:20:14.998Z,33.43
2019-03-08T05:22:44.377Z,33.17
2019-03-08T05:25:14.290Z,33.20
2019-03-08T05:27:43.602Z,33.57
2019-03-08T05:30:13.421Z,32.57
2019-03-08T05:32:42.854Z,32.40
2019-03-08T05:35:12.315Z,31.17
2019-03-08T05:37:41.756Z,31.20
2019-03-08T05:40:11.462Z,31.33
2019-03-08T05:42:40.830Z,30.57
2019-03-08T05:45:10.362Z,32.03
2019-03-08T05:47:39.759Z,32.40
2019-03-08T05:50:09.132Z,31.63
2019-03-08T05:52:38.500Z,34.00
2019-03-08T05:55:07.957Z,41.00
2019-03-08T05:57:37.308Z,34.83
2019-03-08T06:00:07.125Z,32.30
2019-03-08T06:02:36.476Z,32.13
2019-03-08T06:05:06.543Z,33.07
2019-03-08T06:07:36.171Z,33.57
2019-03-08T06:10:07.515Z,33.90
2019-03-08T06:12:37.345Z,35.23
2019-03-08T06:15:21.659Z,36.27
2019-03-08T06:17:51.212Z,37.30
2019-03-08T06:20:20.631Z,36.30
2019-03-08T06:22:49.995Z,34.27
2019-03-08T06:25:19.435Z,32.77
2019-03-08T06:27:48.864Z,32.33
2019-03-08T06:30:18.489Z,33.23
2019-03-08T06:32:47.924Z,34.63
2019-03-08T06:35:17.300Z,33.57
2019-03-08T06:37:46.773Z,32.67
2019-03-08T06:40:16.223Z,34.80
2019-03-08T06:42:45.646Z,36.47
2019-03-08T06:45:16.689Z,35.70
2019-03-08T06:47:46.333Z,36.23
2019-03-08T06:50:15.771Z,35.83
2019-03-08T06:52:45.245Z,36.23
2019-03-08T06:55:14.971Z,35.97
2019-03-08T06:57:44.621Z,35.20
2019-03-08T07:00:47.040Z,36.37
2019-03-08T07:03:16.424Z,33.30
2019-03-08T07:05:45.821Z,34.93
2019-03-08T07:08:15.707Z,33.77
2019-03-08T07:10:45.258Z,34.17
2019-03-08T07:13:16.501Z,30.30
2019-03-08T07:15:46.753Z,25.50
2019-03-08T07:18:16.226Z,25.30
2019-03-08T07:20:56.879Z,28.97
2019-03-08T07:23:46.598Z,27.83
2019-03-08T07:26:38.486Z,30.33
2019-03-08T07:29:45.110Z,27.97
2019-03-08T07:32:21.841Z,25.83
2019-03-08T07:35:08.477Z,22.40
2019-03-08T07:37:56.832Z,23.77
2019-03-08T07:40:48.575Z,25.30
2019-03-08T07:43:38.825Z,27.83
2019-03-08T07:46:36.840Z,27.63
2019-03-08T07:49:16.782Z,29.17
2019-03-08T07:52:11.757Z,28.67
2019-03-08T07:55:02.141Z,28.47
2019-03-08T07:57:56.489Z,29.83
2019-03-08T08:00:36.634Z,30.15
2019-03-08T08:03:26.273Z,29.87
2019-03-08T08:06:02.639Z,30.90
2019-03-08T08:08:52.032Z,30.67
2019-03-08T08:11:38.385Z,28.77
2019-03-08T08:14:25.677Z,28.10
2019-03-08T08:17:16.876Z,30.55
2019-03-08T08:20:15.926Z,31.17
2019-03-08T08:22:48.993Z,31.77
2019-03-08T08:25:37.149Z,30.68
2019-03-08T08:28:26.060Z,26.45
2019-03-08T08:31:20.498Z,25.52
2019-03-08T08:34:08.809Z,27.48
2019-03-08T08:36:57.084Z,27.60
2019-03-08T08:39:54.388Z,33.65
2019-03-08T08:42:45.588Z,31.95
2019-03-08T08:45:33.833Z,32.93
2019-03-08T08:48:25.692Z,31.70
2019-03-08T08:51:29.284Z,30.00
2019-03-08T08:54:28.879Z,26.60
2019-03-08T08:57:16.279Z,26.02
2019-03-08T09:00:02.421Z,26.25
2019-03-08T09:02:53.499Z,26.27
2019-03-08T09:05:29.637Z,23.98
2019-03-08T09:08:16.628Z,24.12
2019-03-08T09:10:53.329Z,25.05
2019-03-08T09:13:47.651Z,22.05
2019-03-08T09:16:39.986Z,22.17
2019-03-08T09:19:28.356Z,23.12
2019-03-08T09:22:21.532Z,24.15
2019-03-08T09:25:15.821Z,28.60
2019-03-08T09:28:16.349Z,24.32
2019-03-08T09:31:05.819Z,25.90
2019-03-08T09:33:54.333Z,23.18
2019-03-08T09:36:43.041Z,24.72
2019-03-08T09:39:34.765Z,22.85
2019-03-08T09:42:12.113Z,23.12
2019-03-08T09:44:59.263Z,21.10
2019-03-08T09:47:51.951Z,21.85
2019-03-08T09:50:40.950Z,21.25
2019-03-08T09:53:33.500Z,24.45
2019-03-08T09:56:39.144Z,21.77
2019-03-08T09:59:31.409Z,21.77
2019-03-08T10:02:10.485Z,23.07
2019-03-08T10:05:03.896Z,21.48
2019-03-08T10:07:44.917Z,23.55
2019-03-08T10:10:25.032Z,21.23
2019-03-08T10:13:15.551Z,20.97
2019-03-08T10:15:54.706Z,21.40
2019-03-08T10:18:57.118Z,20.75
2019-03-08T10:21:46.550Z,22.75
2019-03-08T10:24:38.996Z,21.70
2019-03-08T10:27:18.995Z,21.97
2019-03-08T10:30:06.277Z,21.07
2019-03-08T10:33:13.185Z,21.23
2019-03-08T10:36:04.319Z,23.52
2019-03-08T10:38:42.349Z,23.10
2019-03-08T10:41:37.453Z,27.65
2019-03-08T10:44:38.728Z,22.52
2019-03-08T10:47:17.714Z,22.30
2019-03-08T10:50:07.096Z,21.75
2019-03-08T10:52:41.777Z,21.02
2019-03-08T10:55:33.841Z,22.30
2019-03-08T10:58:09.394Z,21.23
2019-03-08T11:01:04.643Z,21.45
2019-03-08T11:03:47.258Z,21.87
2019-03-08T11:06:27.607Z,21.12
2019-03-08T11:09:30.260Z,22.93
2019-03-08T11:12:17.671Z,21.60
2019-03-08T11:15:09.136Z,22.07
2019-03-08T11:17:57.222Z,21.80
2019-03-08T11:20:55.821Z,22.25
2019-03-08T11:23:47.446Z,22.15
2019-03-08T11:26:37.266Z,22.32
2019-03-08T11:29:26.002Z,20.85
2019-03-08T11:32:22.948Z,20.65
2019-03-08T11:35:12.929Z,21.27
2019-03-08T11:37:58.712Z,22.10
2019-03-08T11:40:46.019Z,21.23
2019-03-08T11:43:33.280Z,21.82
2019-03-08T11:46:19.088Z,22.48
2019-03-08T11:49:14.353Z,20.90
2019-03-08T11:52:01.521Z,21.02
2019-03-08T11:55:03.497Z,21.55
2019-03-08T11:57:50.608Z,19.80
2019-03-08T12:00:35.973Z,15.40
2019-03-08T12:03:25.406Z,11.75
2019-03-08T12:06:27.000Z,10.90
2019-03-08T12:09:19.538Z,9.45
2019-03-08T12:12:12.543Z,10.70
2019-03-08T12:15:04.545Z,9.58
2019-03-08T12:17:47.774Z,9.83
2019-03-08T12:20:36.508Z,9.48
2019-03-08T12:23:25.009Z,7.83
2019-03-08T12:26:16.603Z,7.55
2019-03-08T12:29:03.346Z,7.20
2019-03-08T12:31:42.395Z,6.92
2019-03-08T12:34:36.882Z,6.78
2019-03-08T12:37:15.883Z,5.60
2019-03-08T12:40:00.303Z,4.40
2019-03-08T12:42:52.395Z,5.10
2019-03-08T12:45:56.516Z,5.28
2019-03-08T12:48:51.413Z,6.10
2019-03-08T12:51:49.471Z,4.08
2019-03-08T12:54:28.580Z,4.40
2019-03-08T12:57:16.069Z,4.40
2019-03-08T13:00:11.878Z,5.03
2019-03-08T13:02:58.865Z,4.45
2019-03-08T13:05:46.137Z,8.00
2019-03-08T13:08:25.128Z,6.42
2019-03-08T13:10:54.593Z,5.17
2019-03-08T13:13:24.437Z,6.20
2019-03-08T13:15:54.806Z,5.25
2019-03-08T13:18:24.341Z,4.90
2019-03-08T13:20:54.396Z,5.62
2019-03-08T13:23:23.815Z,7.33
2019-03-08T13:25:53.253Z,5.53
2019-03-08T13:28:22.720Z,5.50
2019-03-08T13:30:52.194Z,5.25
2019-03-08T13:33:21.959Z,6.03
2019-03-08T13:35:51.939Z,5.65
2019-03-08T13:38:21.419Z,4.92
2019-03-08T13:40:50.857Z,5.42
2019-03-08T13:43:20.307Z,5.83
2019-03-08T13:45:49.730Z,6.33
2019-03-08T13:48:19.140Z,5.28
2019-03-08T13:50:48.507Z,5.15
2019-03-08T13:53:17.969Z,3.73
2019-03-08T13:55:47.406Z,3.63
2019-03-08T13:58:16.784Z,4.13
2019-03-08T14:00:46.625Z,4.03
2019-03-08T14:03:16.536Z,4.20
2019-03-08T14:05:46.003Z,4.70
2019-03-08T14:08:15.395Z,4.10
2019-03-08T14:10:46.298Z,5.30
2019-03-08T14:13:15.671Z,4.70
2019-03-08T14:15:46.343Z,4.70
2019-03-08T14:18:15.755Z,4.47
2019-03-08T14:20:45.166Z,4.27
2019-03-08T14:23:14.956Z,4.00
2019-03-08T14:25:44.554Z,5.10
2019-03-08T14:28:15.317Z,3.90
2019-03-08T14:30:57.697Z,4.17
2019-03-08T14:33:25.171Z,4.70
2019-03-08T14:35:54.940Z,4.20
2019-03-08T14:38:24.329Z,4.30
2019-03-08T14:41:09.107Z,4.47
2019-03-08T14:43:48.939Z,4.67
2019-03-08T14:46:25.839Z,3.90
2019-03-08T14:48:55.326Z,4.20
2019-03-08T14:51:24.767Z,3.90
2019-03-08T14:53:54.525Z,3.53
2019-03-08T14:56:23.989Z,3.77
2019-03-08T14:58:53.531Z,4.53
2019-03-08T15:01:22.879Z,4.00
2019-03-08T15:03:52.622Z,3.30
2019-03-08T15:06:27.972Z,3.77
2019-03-08T15:08:55.127Z,3.87
2019-03-08T15:11:26.403Z,4.10
2019-03-08T15:13:57.985Z,3.57
2019-03-08T15:16:26.923Z,3.70
2019-03-08T15:18:56.387Z,3.83
2019-03-08T15:21:25.781Z,4.40
2019-03-08T15:23:55.983Z,4.50
2019-03-08T15:26:25.519Z,7.00
2019-03-08T15:28:54.894Z,5.47
2019-03-08T15:31:25.555Z,4.50
2019-03-08T15:33:54.928Z,4.53
2019-03-08T15:36:24.683Z,6.20
2019-03-08T15:38:58.569Z,5.23
2019-03-08T15:41:26.484Z,5.73
2019-03-08T15:43:55.977Z,7.27
2019-03-08T15:46:26.838Z,6.60
2019-03-08T15:48:56.390Z,6.23
2019-03-08T15:51:26.975Z,6.63
2019-03-08T15:53:56.400Z,5.93
2019-03-08T15:56:25.743Z,6.93
2019-03-08T15:58:55.167Z,6.23
2019-03-08T16:01:25.521Z,7.17
2019-03-08T16:03:54.898Z,6.80
2019-03-08T16:06:24.359Z,7.33
2019-03-08T16:08:53.785Z,7.83
2019-03-08T16:11:23.230Z,10.13
2019-03-08T16:13:52.940Z,9.27
2019-03-08T16:16:22.353Z,9.13
2019-03-08T16:18:51.795Z,10.40
2019-03-08T16:21:21.135Z,8.20
2019-03-08T16:23:51.787Z,10.17
2019-03-08T16:26:25.320Z,10.53
2019-03-08T16:28:52.455Z,9.10
2019-03-08T16:31:52.679Z,10.30
2019-03-08T16:34:21.837Z,11.90
2019-03-08T16:37:19.166Z,11.60
2019-03-08T16:40:19.204Z,8.47
2019-03-08T16:43:12.857Z,8.03
2019-03-08T16:46:00.140Z,10.13
2019-03-08T16:48:33.664Z,9.00
2019-03-08T16:51:23.818Z,10.57
2019-03-08T16:54:05.506Z,9.40
2019-03-08T16:56:41.852Z,10.43
2019-03-08T16:59:42.430Z,8.07
2019-03-08T17:02:42.993Z,8.97
2019-03-08T17:05:45.038Z,8.37
2019-03-08T17:08:30.038Z,8.63
2019-03-08T17:11:18.429Z,10.60
2019-03-08T17:13:54.050Z,9.37
2019-03-08T17:16:41.473Z,8.73
2019-03-08T17:19:18.711Z,8.90
2019-03-08T17:22:05.704Z,8.30
2019-03-08T17:25:06.073Z,8.07
2019-03-08T17:28:06.452Z,9.10
2019-03-08T17:31:03.764Z,6.90
2019-03-08T17:33:51.610Z,6.97
2019-03-08T17:36:39.160Z,7.27
2019-03-08T17:39:32.131Z,6.40
2019-03-08T17:42:22.301Z,7.43
2019-03-08T17:45:15.482Z,7.27
2019-03-08T17:48:03.765Z,6.50
2019-03-08T17:50:51.131Z,7.20
2019-03-08T17:53:45.482Z,6.90
2019-03-08T17:56:33.782Z,6.23
2019-03-08T17:59:34.485Z,7.90
2019-03-08T18:02:29.776Z,5.80
2019-03-08T18:05:18.153Z,5.70
2019-03-08T18:08:14.637Z,6.00
2019-03-08T18:11:02.957Z,6.50
2019-03-08T18:13:50.339Z,5.63
2019-03-08T18:16:24.682Z,5.37
2019-03-08T18:19:11.816Z,5.47
2019-03-08T18:22:00.100Z,8.00
2019-03-08T18:24:54.481Z,6.43
2019-03-08T18:27:40.744Z,5.23
2019-03-08T18:30:37.153Z,5.63
2019-03-08T18:33:16.445Z,5.00
2019-03-08T18:36:03.669Z,5.63
2019-03-08T18:38:50.896Z,5.73
2019-03-08T18:41:32.257Z,5.10
2019-03-08T18:44:10.757Z,5.77
2019-03-08T18:46:55.175Z,7.13
2019-03-08T18:49:41.834Z,7.67
2019-03-08T18:52:36.421Z,7.77
2019-03-08T18:55:23.891Z,8.03
2019-03-08T18:58:08.501Z,6.63
2019-03-08T19:00:47.738Z,6.03
2019-03-08T19:03:38.752Z,8.27
2019-03-08T19:06:20.018Z,9.57
2019-03-08T19:09:04.393Z,9.13
2019-03-08T19:11:59.018Z,8.53
2019-03-08T19:14:45.503Z,8.70
2019-03-08T19:17:40.309Z,10.20
2019-03-08T19:20:19.051Z,10.40
2019-03-08T19:23:05.988Z,23.77
2019-03-08T19:25:51.280Z,17.50
2019-03-08T19:28:46.125Z,13.97
2019-03-08T19:31:46.479Z,13.23
2019-03-08T19:34:34.957Z,15.80
2019-03-08T19:37:32.472Z,15.07
2019-03-08T19:40:09.387Z,14.90
2019-03-08T19:42:57.675Z,15.27
2019-03-08T19:45:44.662Z,15.30
2019-03-08T19:48:40.377Z,14.97
2019-03-08T19:51:37.539Z,16.07
2019-03-08T19:54:18.425Z,15.67
2019-03-08T19:57:04.848Z,20.97
2019-03-08T19:59:53.154Z,21.17
2019-03-08T20:02:29.331Z,19.80
2019-03-08T20:05:33.050Z,20.23
2019-03-08T20:08:27.510Z,23.07
2019-03-08T20:11:14.481Z,22.50
2019-03-08T20:14:09.289Z,23.93
2019-03-08T20:17:00.635Z,37.67
2019-03-08T20:19:47.800Z,36.57
2019-03-08T20:22:32.937Z,38.57
2019-03-08T20:25:21.315Z,33.90
2019-03-08T20:28:12.433Z,31.60
2019-03-08T20:31:07.798Z,29.43
2019-03-08T20:33:59.097Z,28.83
2019-03-08T20:36:37.098Z,27.37
2019-03-08T20:39:28.964Z,30.70
2019-03-08T20:42:06.040Z,62.60
2019-03-08T20:44:42.308Z,67.43
2019-03-08T20:47:15.193Z,62.87
2019-03-08T20:49:44.523Z,48.27
2019-03-08T20:52:13.874Z,33.03
2019-03-08T20:54:43.223Z,39.53
2019-03-08T20:57:12.635Z,57.37
2019-03-08T20:59:41.971Z,50.03
2019-03-08T21:02:14.051Z,52.30
2019-03-08T21:04:43.452Z,35.37
2019-03-08T21:07:12.810Z,48.37
2019-03-08T21:09:42.204Z,40.90
2019-03-08T21:12:11.590Z,43.57
2019-03-08T21:14:40.973Z,44.63
2019-03-08T21:17:10.342Z,34.80
2019-03-08T21:19:39.680Z,41.27
2019-03-08T21:22:09.046Z,46.97
2019-03-08T21:24:38.416Z,53.23
2019-03-08T21:27:07.860Z,66.53
2019-03-08T21:29:37.228Z,65.27
2019-03-08T21:32:07.537Z,63.60
2019-03-08T21:34:37.007Z,63.77
2019-03-08T21:37:06.376Z,49.67
2019-03-08T21:39:35.756Z,49.13
2019-03-08T21:42:05.125Z,50.90
2019-03-08T21:44:34.809Z,35.50
2019-03-08T21:47:04.178Z,37.10
2019-03-08T21:49:33.525Z,43.50
2019-03-08T21:52:02.890Z,37.50
2019-03-08T21:54:32.257Z,42.40
2019-03-08T21:57:01.766Z,44.23
2019-03-08T21:59:31.135Z,50.87
2019-03-08T22:02:00.501Z,47.77
2019-03-08T22:04:48.760Z,39.70
2019-03-08T22:07:18.313Z,33.67
2019-03-08T22:09:58.774Z,30.33
2019-03-08T22:12:28.119Z,28.07
2019-03-08T22:14:57.506Z,31.27
2019-03-08T22:17:27.054Z,33.37
2019-03-08T22:19:56.442Z,33.60
2019-03-08T22:22:25.827Z,34.27
2019-03-08T22:24:55.217Z,40.90
2019-03-08T22:27:24.606Z,39.27
2019-03-08T22:29:54.239Z,32.07
2019-03-08T22:32:23.621Z,31.90
2019-03-08T22:34:52.955Z,35.83
2019-03-08T22:37:22.326Z,34.27
2019-03-08T22:39:51.801Z,31.87
2019-03-08T22:42:21.173Z,30.60
2019-03-08T22:44:50.612Z,26.37
2019-03-08T22:47:19.992Z,34.33
2019-03-08T22:49:49.399Z,32.87
2019-03-08T22:52:18.750Z,36.23
2019-03-08T22:54:48.207Z,29.70
2019-03-08T22:57:17.574Z,33.77
2019-03-08T22:59:46.942Z,30.60
2019-03-08T23:02:16.405Z,33.17
2019-03-08T23:04:45.825Z,36.83
2019-03-08T23:07:15.174Z,33.33
2019-03-08T23:09:44.553Z,32.60
2019-03-08T23:12:13.894Z,31.83
2019-03-08T23:14:43.241Z,35.50
2019-03-08T23:17:12.665Z,36.03
2019-03-08T23:19:42.069Z,32.63
2019-03-08T23:22:11.517Z,33.43
2019-03-08T23:24:40.909Z,33.80
2019-03-08T23:27:23.755Z,28.03
2019-03-08T23:29:58.085Z,24.90
2019-03-08T23:32:33.343Z,32.37
2019-03-08T23:35:02.732Z,33.30
2019-03-08T23:37:32.088Z,37.57
2019-03-08T23:40:01.448Z,39.60
2019-03-08T23:42:30.982Z,36.07
2019-03-08T23:45:00.379Z,68.13
2019-03-08T23:47:29.784Z,43.27
2019-03-08T23:49:59.217Z,41.73
2019-03-08T23:52:28.611Z,39.07
2019-03-08T23:54:58.436Z,42.27
2019-03-08T23:57:27.852Z,42.90
2019-03-08T23:59:57.281Z,43.90
